createdAt,value
2023-04-07T00:00:30.814Z,99.90
2023-04-07T00:02:57.612Z,99.90
2023-04-07T00:05:24.283Z,99.90
2023-04-07T00:07:56.340Z,99.90
2023-04-07T00:10:24.776Z,99.90
2023-04-07T00:12:51.668Z,99.90
2023-04-07T00:15:18.277Z,99.90
2023-04-07T00:17:44.863Z,99.90
2023-04-07T00:20:11.755Z,99.90
2023-04-07T00:22:38.262Z,99.90
2023-04-07T00:25:05.033Z,99.90
2023-04-07T00:27:31.943Z,99.90
2023-04-07T00:29:58.557Z,99.90
2023-04-07T00:32:25.376Z,99.90
2023-04-07T00:34:52.009Z,99.90
2023-04-07T00:37:19.338Z,99.90
2023-04-07T00:39:46.679Z,99.90
2023-04-07T00:42:13.354Z,99.90
2023-04-07T00:44:39.956Z,99.90
2023-04-07T00:47:06.499Z,99.90
2023-04-07T00:49:33.089Z,99.90
2023-04-07T00:51:59.646Z,99.90
2023-04-07T00:54:26.407Z,99.90
2023-04-07T00:56:53.078Z,99.90
2023-04-07T00:59:19.921Z,99.90
2023-04-07T01:02:02.110Z,99.90
2023-04-07T01:04:39.223Z,99.90
2023-04-07T01:07:09.432Z,99.90
2023-04-07T01:13:11.654Z,99.90
2023-04-07T01:15:38.967Z,99.90
2023-04-07T01:18:12.890Z,99.90
2023-04-07T01:20:39.908Z,99.90
2023-04-07T01:23:08.131Z,99.90
2023-04-07T01:25:52.914Z,99.90
2023-04-07T01:28:33.840Z,99.90
2023-04-07T01:31:01.677Z,99.90
2023-04-07T01:33:32.072Z,99.90
2023-04-07T01:36:00.909Z,99.90
2023-04-07T01:38:28.225Z,99.90
2023-04-07T01:40:56.322Z,99.90
2023-04-07T01:43:24.099Z,99.90
2023-04-07T01:45:51.251Z,99.90
2023-04-07T01:48:22.658Z,99.90
2023-04-07T01:50:49.999Z,99.90
2023-04-07T01:55:43.942Z,99.90
2023-04-07T01:58:10.641Z,99.90
2023-04-07T02:00:37.392Z,99.90
2023-04-07T02:03:13.255Z,99.90
2023-04-07T02:05:40.359Z,99.90
2023-04-07T02:08:08.463Z,99.90
2023-04-07T02:10:36.221Z,99.90
2023-04-07T02:13:05.036Z,99.90
2023-04-07T02:15:32.188Z,99.90
2023-04-07T02:18:00.262Z,99.90
2023-04-07T02:20:26.960Z,99.90
2023-04-07T02:22:54.456Z,99.90
2023-04-07T02:25:25.603Z,99.90
2023-04-07T02:27:52.312Z,99.90
2023-04-07T02:30:19.034Z,99.90
2023-04-07T02:32:46.004Z,99.90
2023-04-07T02:35:12.616Z,99.90
2023-04-07T02:37:39.329Z,99.90
2023-04-07T02:40:06.507Z,99.90
2023-04-07T02:42:33.097Z,99.90
2023-04-07T02:44:59.636Z,99.90
2023-04-07T02:47:26.573Z,99.90
2023-04-07T02:49:53.122Z,99.90
2023-04-07T02:52:19.711Z,99.90
2023-04-07T02:54:46.299Z,99.90
2023-04-07T02:57:13.882Z,99.90
2023-04-07T02:59:41.201Z,99.90
2023-04-07T03:02:08.103Z,99.90
2023-04-07T03:04:34.908Z,99.90
2023-04-07T03:07:01.641Z,99.90
2023-04-07T03:09:28.250Z,99.90
2023-04-07T03:11:54.843Z,99.90
2023-04-07T03:14:21.438Z,99.90
2023-04-07T03:16:48.012Z,99.90
2023-04-07T03:19:14.602Z,99.90
2023-04-07T03:21:41.167Z,99.90
2023-04-07T03:24:07.889Z,99.90
2023-04-07T03:26:34.707Z,99.90
2023-04-07T03:29:01.360Z,99.90
2023-04-07T03:31:28.154Z,99.90
2023-04-07T03:33:54.722Z,99.90
2023-04-07T03:36:21.393Z,99.90
2023-04-07T03:38:48.305Z,99.90
2023-04-07T03:41:14.855Z,99.90
2023-04-07T03:43:41.447Z,99.90
2023-04-07T03:46:08.061Z,99.90
2023-04-07T03:48:34.621Z,99.90
2023-04-07T03:51:01.753Z,99.90
2023-04-07T03:53:28.318Z,99.90
2023-04-07T03:55:54.907Z,99.90
2023-04-07T03:58:21.511Z,99.90
2023-04-07T04:00:48.115Z,99.90
2023-04-07T04:05:42.109Z,99.90
2023-04-07T04:08:08.622Z,99.90
2023-04-07T04:10:35.302Z,99.90
2023-04-07T04:13:03.649Z,99.90
2023-04-07T04:15:30.197Z,99.90
2023-04-07T04:17:56.747Z,99.90
2023-04-07T04:20:23.392Z,99.90
2023-04-07T04:22:49.951Z,99.90
2023-04-07T04:25:17.097Z,99.90
2023-04-07T04:27:43.657Z,99.90
2023-04-07T04:30:10.306Z,99.90
2023-04-07T04:32:36.858Z,99.90
2023-04-07T04:35:03.619Z,99.90
2023-04-07T04:37:30.503Z,99.90
2023-04-07T04:39:57.038Z,99.90
2023-04-07T04:42:23.799Z,99.90
2023-04-07T04:44:50.365Z,99.90
2023-04-07T04:47:17.160Z,99.90
2023-04-07T04:49:43.764Z,99.90
2023-04-07T04:52:10.322Z,99.90
2023-04-07T04:54:36.919Z,99.90
2023-04-07T04:59:30.487Z,99.90
2023-04-07T05:01:57.057Z,99.90
2023-04-07T05:04:23.946Z,99.90
2023-04-07T05:06:50.912Z,99.90
2023-04-07T05:09:17.505Z,99.90
2023-04-07T05:11:44.059Z,99.90
2023-04-07T05:14:10.837Z,99.90
2023-04-07T05:16:37.519Z,99.90
2023-04-07T05:19:04.181Z,99.90
2023-04-07T05:21:30.742Z,99.90
2023-04-07T05:23:57.483Z,99.90
2023-04-07T05:26:24.116Z,99.90
2023-04-07T05:28:50.860Z,99.90
2023-04-07T05:31:17.447Z,99.90
2023-04-07T05:33:44.030Z,99.90
2023-04-07T05:36:10.814Z,99.90
2023-04-07T05:38:37.415Z,99.90
2023-04-07T05:41:04.006Z,99.90
2023-04-07T05:43:30.649Z,99.90
2023-04-07T05:45:57.653Z,99.90
2023-04-07T05:48:24.374Z,99.90
2023-04-07T05:50:51.241Z,99.90
2023-04-07T05:53:17.868Z,99.90
2023-04-07T05:55:44.513Z,99.90
2023-04-07T05:58:11.201Z,99.90
2023-04-07T06:00:37.803Z,99.90
2023-04-07T06:05:31.478Z,99.90
2023-04-07T06:07:58.088Z,99.90
2023-04-07T06:10:24.717Z,99.90
2023-04-07T06:12:51.272Z,99.90
2023-04-07T06:15:17.917Z,99.90
2023-04-07T06:17:45.818Z,99.90
2023-04-07T06:20:12.531Z,99.90
2023-04-07T06:22:39.101Z,99.90
2023-04-07T06:25:05.890Z,99.90
2023-04-07T06:27:33.159Z,99.90
2023-04-07T06:29:59.734Z,99.90
2023-04-07T06:32:26.467Z,99.90
2023-04-07T06:34:53.080Z,99.90
2023-04-07T06:37:19.702Z,99.90
2023-04-07T06:39:46.253Z,99.90
2023-04-07T06:42:12.782Z,99.90
2023-04-07T06:44:39.353Z,99.90
2023-04-07T06:47:05.926Z,99.90
2023-04-07T06:49:32.557Z,99.90
2023-04-07T06:51:59.104Z,99.90
2023-04-07T06:54:25.744Z,99.90
2023-04-07T06:56:53.659Z,99.90
2023-04-07T06:59:21.330Z,99.90
2023-04-07T07:01:49.232Z,99.90
2023-04-07T07:04:15.954Z,99.90
2023-04-07T07:06:42.653Z,99.90
2023-04-07T07:09:09.251Z,99.90
2023-04-07T07:11:35.895Z,99.90
2023-04-07T07:14:02.457Z,99.90
2023-04-07T07:16:29.038Z,99.90
2023-04-07T07:18:55.575Z,99.90
2023-04-07T07:21:22.224Z,99.90
2023-04-07T07:23:49.202Z,99.90
2023-04-07T07:26:16.189Z,99.90
2023-04-07T07:28:43.175Z,99.90
2023-04-07T07:31:16.047Z,99.90
2023-04-07T07:33:44.090Z,99.90
2023-04-07T07:36:10.925Z,99.90
2023-04-07T07:38:46.332Z,99.90
2023-04-07T07:41:15.403Z,99.90
2023-04-07T07:43:42.279Z,99.90
2023-04-07T07:46:08.984Z,99.90
2023-04-07T07:48:35.604Z,99.90
2023-04-07T07:51:02.237Z,99.90
2023-04-07T07:53:28.850Z,99.90
2023-04-07T07:55:56.081Z,99.90
2023-04-07T07:58:22.722Z,99.90
2023-04-07T08:00:49.298Z,99.90
2023-04-07T08:03:16.782Z,99.90
2023-04-07T08:05:44.343Z,99.90
2023-04-07T08:08:11.074Z,99.90
2023-04-07T08:10:37.646Z,99.90
2023-04-07T08:13:05.220Z,99.90
2023-04-07T08:15:31.962Z,99.90
2023-04-07T08:18:00.176Z,99.90
2023-04-07T08:20:27.524Z,99.90
2023-04-07T08:22:54.138Z,99.90
2023-04-07T08:25:20.993Z,99.90
2023-04-07T08:27:47.653Z,99.90
2023-04-07T08:30:14.317Z,99.90
2023-04-07T08:32:42.134Z,99.90
2023-04-07T08:35:16.717Z,99.90
2023-04-07T08:37:52.048Z,99.90
2023-04-07T08:43:08.174Z,99.90
2023-04-07T08:45:36.982Z,99.90
2023-04-07T08:48:04.954Z,99.90
2023-04-07T08:50:31.802Z,99.90
2023-04-07T08:53:00.575Z,99.90
2023-04-07T08:55:27.232Z,99.90
2023-04-07T08:57:54.387Z,99.90
2023-04-07T09:00:21.118Z,99.90
2023-04-07T09:02:49.382Z,99.90
2023-04-07T09:05:16.120Z,99.90
2023-04-07T09:07:44.502Z,99.90
2023-04-07T09:10:11.581Z,99.90
2023-04-07T09:12:38.361Z,99.90
2023-04-07T09:15:07.908Z,99.90
2023-04-07T09:17:34.541Z,99.90
2023-04-07T09:20:01.662Z,99.90
2023-04-07T09:22:35.820Z,99.90
2023-04-07T09:25:18.930Z,99.90
2023-04-07T09:27:58.901Z,99.90
2023-04-07T09:30:26.239Z,99.90
2023-04-07T09:32:52.922Z,99.90
2023-04-07T09:35:19.598Z,99.90
2023-04-07T09:38:00.718Z,99.90
2023-04-07T09:40:27.743Z,99.90
2023-04-07T09:42:54.500Z,99.90
2023-04-07T09:45:34.038Z,99.90
2023-04-07T09:48:05.287Z,99.90
2023-04-07T09:50:33.808Z,99.90
2023-04-07T09:53:01.568Z,99.90
2023-04-07T09:55:28.944Z,99.90
2023-04-07T09:57:56.024Z,99.90
2023-04-07T10:00:23.246Z,99.90
2023-04-07T10:02:51.268Z,99.90
2023-04-07T10:05:18.119Z,99.90
2023-04-07T10:07:44.701Z,99.90
2023-04-07T10:10:11.397Z,99.90
2023-04-07T10:12:38.128Z,99.90
2023-04-07T10:15:04.869Z,99.90
2023-04-07T10:17:32.061Z,99.90
2023-04-07T10:19:59.017Z,99.90
2023-04-07T10:22:26.876Z,99.90
2023-04-07T10:25:00.170Z,99.90
2023-04-07T10:27:32.027Z,99.90
2023-04-07T10:29:58.825Z,99.90
2023-04-07T10:32:25.453Z,99.60
2023-04-07T10:34:54.922Z,99.90
2023-04-07T10:37:22.503Z,99.90
2023-04-07T10:39:49.727Z,99.90
2023-04-07T10:42:35.252Z,99.90
2023-04-07T10:45:02.659Z,99.90
2023-04-07T10:47:29.286Z,99.90
2023-04-07T10:50:14.539Z,99.90
2023-04-07T10:52:41.112Z,99.90
2023-04-07T10:55:37.707Z,99.90
2023-04-07T10:58:14.601Z,99.90
2023-04-07T11:00:41.238Z,99.90
2023-04-07T11:03:14.216Z,99.90
2023-04-07T11:05:41.445Z,99.90
2023-04-07T11:08:08.170Z,99.90
2023-04-07T11:10:35.722Z,99.90
2023-04-07T11:13:03.588Z,99.90
2023-04-07T11:15:30.411Z,99.90
2023-04-07T11:18:06.791Z,99.90
2023-04-07T11:20:45.896Z,99.90
2023-04-07T11:23:13.472Z,99.90
2023-04-07T11:25:41.928Z,99.90
2023-04-07T11:28:09.685Z,99.90
2023-04-07T11:30:36.375Z,99.90
2023-04-07T11:33:03.669Z,99.90
2023-04-07T11:35:30.516Z,99.90
2023-04-07T11:38:00.772Z,99.90
2023-04-07T11:40:34.518Z,99.90
2023-04-07T11:43:02.276Z,99.90
2023-04-07T11:45:29.042Z,99.90
2023-04-07T11:47:55.814Z,99.90
2023-04-07T11:50:39.124Z,99.90
2023-04-07T11:53:05.879Z,99.90
2023-04-07T11:55:32.479Z,99.90
2023-04-07T11:58:05.752Z,99.90
2023-04-07T12:00:32.363Z,99.90
2023-04-07T12:03:10.205Z,99.90
2023-04-07T12:05:43.742Z,99.90
2023-04-07T12:08:10.347Z,99.90
2023-04-07T12:10:40.487Z,99.90
2023-04-07T12:13:17.448Z,99.90
2023-04-07T12:15:50.739Z,99.90
2023-04-07T12:18:19.206Z,99.90
2023-04-07T12:20:45.955Z,99.90
2023-04-07T12:23:12.625Z,99.90
2023-04-07T12:25:39.294Z,99.90
2023-04-07T12:28:05.997Z,99.90
2023-04-07T12:30:33.055Z,99.90
2023-04-07T12:32:59.804Z,99.90
2023-04-07T12:35:26.944Z,99.90
2023-04-07T12:37:53.698Z,99.90
2023-04-07T12:40:20.356Z,99.90
2023-04-07T12:42:47.021Z,99.90
2023-04-07T12:45:13.737Z,99.90
2023-04-07T12:47:40.774Z,99.90
2023-04-07T12:50:07.477Z,99.90
2023-04-07T12:52:34.242Z,99.90
2023-04-07T12:55:00.957Z,99.90
2023-04-07T12:57:27.727Z,99.90
2023-04-07T12:59:54.553Z,99.90
2023-04-07T13:02:21.355Z,99.90
2023-04-07T13:04:48.179Z,99.90
2023-04-07T13:07:14.921Z,99.90
2023-04-07T13:09:45.123Z,99.90
2023-04-07T13:12:12.202Z,99.90
2023-04-07T13:14:49.379Z,99.90
2023-04-07T13:17:24.034Z,99.90
2023-04-07T13:19:50.769Z,99.90
2023-04-07T13:22:21.484Z,99.90
2023-04-07T13:24:48.659Z,99.90
2023-04-07T13:27:15.696Z,99.90
2023-04-07T13:29:42.438Z,99.90
2023-04-07T13:32:09.976Z,99.90
2023-04-07T13:34:36.928Z,99.90
2023-04-07T13:37:03.830Z,99.90
2023-04-07T13:39:31.059Z,99.90
2023-04-07T13:41:58.009Z,99.90
2023-04-07T13:44:25.118Z,99.90
2023-04-07T13:46:52.572Z,99.90
2023-04-07T13:49:19.611Z,99.90
2023-04-07T13:51:46.340Z,99.90
2023-04-07T13:54:13.021Z,99.90
2023-04-07T13:56:40.474Z,99.90
2023-04-07T13:59:07.719Z,99.90
2023-04-07T14:01:35.709Z,99.90
2023-04-07T14:04:02.854Z,99.90
2023-04-07T14:06:29.526Z,99.90
2023-04-07T14:08:56.226Z,99.90
2023-04-07T14:11:22.892Z,99.90
2023-04-07T14:13:49.916Z,99.90
2023-04-07T14:16:17.415Z,99.90
2023-04-07T14:18:44.338Z,99.90
2023-04-07T14:21:11.209Z,99.90
2023-04-07T14:23:38.016Z,99.90
2023-04-07T14:26:04.740Z,99.90
2023-04-07T14:28:31.657Z,99.90
2023-04-07T14:30:58.458Z,99.90
2023-04-07T14:33:26.146Z,99.90
2023-04-07T14:35:52.892Z,99.90
2023-04-07T14:38:24.190Z,99.90
2023-04-07T14:40:51.365Z,99.90
2023-04-07T14:43:18.283Z,99.90
2023-04-07T14:45:45.575Z,99.90
2023-04-07T14:48:13.562Z,99.90
2023-04-07T14:50:41.324Z,99.90
2023-04-07T14:53:08.258Z,99.90
2023-04-07T14:55:34.985Z,99.90
2023-04-07T14:58:01.690Z,99.90
2023-04-07T15:00:28.966Z,99.90
2023-04-07T15:02:56.020Z,99.90
2023-04-07T15:05:23.072Z,99.90
2023-04-07T15:07:52.919Z,99.90
2023-04-07T15:10:20.162Z,99.90
2023-04-07T15:12:47.674Z,99.90
2023-04-07T15:15:14.814Z,99.90
2023-04-07T15:17:44.422Z,99.90
2023-04-07T15:20:12.969Z,99.90
2023-04-07T15:22:40.230Z,99.90
2023-04-07T15:25:07.074Z,99.90
2023-04-07T15:27:34.335Z,98.70
2023-04-07T15:30:02.382Z,99.10
2023-04-07T15:32:31.026Z,99.20
2023-04-07T15:34:57.757Z,99.90
2023-04-07T15:39:51.663Z,94.90
2023-04-07T15:42:18.342Z,94.40
2023-04-07T15:44:45.021Z,94.40
2023-04-07T15:47:11.687Z,95.00
2023-04-07T15:49:38.938Z,95.60
2023-04-07T15:52:06.286Z,97.10
2023-04-07T15:54:33.116Z,97.70
2023-04-07T15:56:59.830Z,97.60
2023-04-07T15:59:29.371Z,98.40
2023-04-07T16:01:56.187Z,97.30
2023-04-07T16:04:23.041Z,98.50
2023-04-07T16:06:49.731Z,99.40
2023-04-07T16:09:16.459Z,99.40
2023-04-07T16:11:43.148Z,99.90
2023-04-07T16:14:09.812Z,99.90
2023-04-07T16:16:37.142Z,99.90
2023-04-07T16:19:03.994Z,99.90
2023-04-07T16:21:31.430Z,99.90
2023-04-07T16:23:58.201Z,99.90
2023-04-07T16:26:24.928Z,99.90
2023-04-07T16:28:51.580Z,99.90
2023-04-07T16:31:18.320Z,99.90
2023-04-07T16:33:45.090Z,99.90
2023-04-07T16:36:11.827Z,99.90
2023-04-07T16:38:38.493Z,99.90
2023-04-07T16:41:07.053Z,99.90
2023-04-07T16:43:33.688Z,99.90
2023-04-07T16:46:00.670Z,99.90
2023-04-07T16:48:27.442Z,99.90
2023-04-07T16:50:54.126Z,99.90
2023-04-07T16:53:21.460Z,99.90
2023-04-07T16:55:48.236Z,99.90
2023-04-07T16:58:18.927Z,99.90
2023-04-07T17:00:45.866Z,99.90
2023-04-07T17:03:15.957Z,99.90
2023-04-07T17:05:44.670Z,99.90
2023-04-07T17:08:11.667Z,99.90
2023-04-07T17:10:38.348Z,99.90
2023-04-07T17:13:05.020Z,99.90
2023-04-07T17:15:35.078Z,99.90
2023-04-07T17:18:01.856Z,99.90
2023-04-07T17:20:28.513Z,99.90
2023-04-07T17:22:55.131Z,99.90
2023-04-07T17:25:21.748Z,99.90
2023-04-07T17:27:48.389Z,99.90
2023-04-07T17:30:15.019Z,99.90
2023-04-07T17:32:42.439Z,99.90
2023-04-07T17:35:09.232Z,99.90
2023-04-07T17:37:36.039Z,99.90
2023-04-07T17:40:02.689Z,99.90
2023-04-07T17:42:29.385Z,99.90
2023-04-07T17:44:56.808Z,99.90
2023-04-07T17:47:24.315Z,99.90
2023-04-07T17:49:50.990Z,99.90
2023-04-07T17:52:17.737Z,99.90
2023-04-07T17:54:44.322Z,99.90
2023-04-07T17:57:11.561Z,99.90
2023-04-07T17:59:38.238Z,99.90
2023-04-07T18:02:09.085Z,99.90
2023-04-07T18:04:37.331Z,99.90
2023-04-07T18:07:04.937Z,99.90
2023-04-07T18:09:32.437Z,99.90
2023-04-07T18:11:59.410Z,99.90
2023-04-07T18:14:26.179Z,99.90
2023-04-07T18:16:54.599Z,99.90
2023-04-07T18:19:22.939Z,99.90
2023-04-07T18:21:52.336Z,99.90
2023-04-07T18:24:20.616Z,99.90
2023-04-07T18:29:14.945Z,99.90
2023-04-07T18:31:42.269Z,99.90
2023-04-07T18:34:09.486Z,99.90
2023-04-07T18:36:36.191Z,99.90
2023-04-07T18:39:03.025Z,99.90
2023-04-07T18:41:30.385Z,99.90
2023-04-07T18:43:57.120Z,99.90
2023-04-07T18:46:23.827Z,99.90
2023-04-07T18:48:50.539Z,99.90
2023-04-07T18:51:17.201Z,99.90
2023-04-07T18:53:43.858Z,99.90
2023-04-07T18:56:10.473Z,99.90
2023-04-07T18:58:43.769Z,99.90
2023-04-07T19:01:11.595Z,99.90
2023-04-07T19:03:39.584Z,99.90
2023-04-07T19:06:06.440Z,99.90
2023-04-07T19:08:33.287Z,99.90
2023-04-07T19:10:59.879Z,99.90
2023-04-07T19:13:26.789Z,99.90
2023-04-07T19:15:53.535Z,99.90
2023-04-07T19:18:21.026Z,99.90
2023-04-07T19:20:47.709Z,99.90
2023-04-07T19:23:14.552Z,99.90
2023-04-07T19:25:44.338Z,99.90
2023-04-07T19:28:12.356Z,99.90
2023-04-07T19:30:38.970Z,99.90
2023-04-07T19:33:06.360Z,99.90
2023-04-07T19:35:33.181Z,99.90
2023-04-07T19:37:59.888Z,99.90
2023-04-07T19:40:26.517Z,99.90
2023-04-07T19:42:54.776Z,99.90
2023-04-07T19:45:21.562Z,99.90
2023-04-07T19:47:48.379Z,99.90
2023-04-07T19:50:15.080Z,99.90
2023-04-07T19:52:44.454Z,99.90
2023-04-07T19:57:38.452Z,99.90
2023-04-07T20:00:05.358Z,99.90
2023-04-07T20:02:32.211Z,99.90
2023-04-07T20:04:58.952Z,99.90
2023-04-07T20:07:26.225Z,99.90
2023-04-07T20:09:54.873Z,99.90
2023-04-07T20:12:21.475Z,99.90
2023-04-07T20:14:48.098Z,99.90
2023-04-07T20:17:14.737Z,99.90
2023-04-07T20:19:41.737Z,99.90
2023-04-07T20:22:08.958Z,99.90
2023-04-07T20:24:35.923Z,99.90
2023-04-07T20:27:02.810Z,99.90
2023-04-07T20:29:29.493Z,99.90
2023-04-07T20:31:56.126Z,99.90
2023-04-07T20:34:22.781Z,99.90
2023-04-07T20:36:49.406Z,99.90
2023-04-07T20:39:16.562Z,99.90
2023-04-07T20:41:45.099Z,99.90
2023-04-07T20:44:12.171Z,99.90
2023-04-07T20:46:38.856Z,99.90
2023-04-07T20:49:07.769Z,99.90
2023-04-07T20:51:37.357Z,99.90
2023-04-07T20:54:04.458Z,99.90
2023-04-07T20:56:31.742Z,99.90
2023-04-07T20:58:58.435Z,99.90
2023-04-07T21:01:25.090Z,99.90
2023-04-07T21:03:52.860Z,99.90
2023-04-07T21:06:19.609Z,99.90
2023-04-07T21:08:46.325Z,99.90
2023-04-07T21:11:13.031Z,99.90
2023-04-07T21:13:39.697Z,99.90
2023-04-07T21:16:06.406Z,99.90
2023-04-07T21:18:33.318Z,99.90
2023-04-07T21:21:02.078Z,99.90
2023-04-07T21:23:31.164Z,99.90
2023-04-07T21:26:01.613Z,99.90
2023-04-07T21:28:28.244Z,99.90
2023-04-07T21:30:56.614Z,99.90
2023-04-07T21:33:23.318Z,99.90
2023-04-07T21:35:50.925Z,99.90
2023-04-07T21:38:17.674Z,99.90
2023-04-07T21:40:44.372Z,99.90
2023-04-07T21:43:12.209Z,99.90
2023-04-07T21:45:38.956Z,99.90
2023-04-07T21:48:05.663Z,99.90
2023-04-07T21:50:32.400Z,99.90
2023-04-07T21:52:58.990Z,99.90
2023-04-07T21:55:25.649Z,99.90
2023-04-07T21:57:52.343Z,99.90
2023-04-07T22:00:19.122Z,99.90
2023-04-07T22:02:45.949Z,99.90
2023-04-07T22:05:12.783Z,99.90
2023-04-07T22:07:39.418Z,99.90
2023-04-07T22:10:06.508Z,99.90
2023-04-07T22:12:33.105Z,99.90
2023-04-07T22:14:59.804Z,99.90
2023-04-07T22:17:26.767Z,99.90
2023-04-07T22:19:53.486Z,99.90
2023-04-07T22:22:20.292Z,99.90
2023-04-07T22:24:46.931Z,99.90
2023-04-07T22:27:13.555Z,99.90
2023-04-07T22:29:40.312Z,99.90
2023-04-07T22:32:06.949Z,99.90
2023-04-07T22:34:33.673Z,99.90
2023-04-07T22:37:00.568Z,99.90
2023-04-07T22:39:27.233Z,99.90
2023-04-07T22:41:53.878Z,99.90
2023-04-07T22:44:20.798Z,99.90
2023-04-07T22:46:47.571Z,99.90
2023-04-07T22:49:14.278Z,99.90
2023-04-07T22:51:41.251Z,99.90
2023-04-07T22:54:07.853Z,99.90
2023-04-07T22:56:34.478Z,99.90
2023-04-07T22:59:05.373Z,99.90
2023-04-07T23:01:32.521Z,99.90
2023-04-07T23:03:59.369Z,99.90
2023-04-07T23:06:28.557Z,99.90
2023-04-07T23:08:55.745Z,99.90
2023-04-07T23:11:22.676Z,99.90
2023-04-07T23:13:49.562Z,99.90
2023-04-07T23:16:16.373Z,99.90
2023-04-07T23:18:43.169Z,99.90
2023-04-07T23:21:09.977Z,99.90
2023-04-07T23:23:36.703Z,99.90
2023-04-07T23:26:03.301Z,99.90
2023-04-07T23:28:29.918Z,99.90
2023-04-07T23:30:57.118Z,99.90
2023-04-07T23:33:23.755Z,99.90
2023-04-07T23:35:50.669Z,99.90
2023-04-07T23:38:17.431Z,99.90
2023-04-07T23:40:44.114Z,99.90
2023-04-07T23:43:10.850Z,99.90
2023-04-07T23:45:37.524Z,99.90
2023-04-07T23:48:04.198Z,99.90
2023-04-07T23:50:31.023Z,99.90
2023-04-07T23:52:57.627Z,99.90
2023-04-07T23:55:24.296Z,99.90
2023-04-07T23:57:50.974Z,99.90
